createdAt,value
2024-03-31T00:02:18.246Z,59.07
2024-03-31T00:07:21.603Z,59.10
2024-03-31T00:12:25.210Z,59.24
2024-03-31T00:17:30.646Z,59.28
2024-03-31T00:22:34.973Z,59.39
2024-03-31T00:27:38.144Z,59.60
2024-03-31T00:32:41.381Z,59.75
2024-03-31T00:37:44.426Z,59.83
2024-03-31T00:42:47.578Z,59.96
2024-03-31T00:47:51.217Z,59.96
2024-03-31T00:52:54.749Z,59.90
2024-03-31T00:57:59.252Z,59.78
2024-03-31T01:03:02.912Z,59.57
2024-03-31T01:08:06.933Z,59.68
2024-03-31T01:13:10.682Z,59.61
2024-03-31T01:18:14.283Z,59.56
2024-03-31T01:23:21.409Z,59.67
2024-03-31T01:28:24.916Z,59.86
2024-03-31T01:33:29.433Z,59.91
2024-03-31T01:38:37.765Z,60.14
2024-03-31T01:43:48.498Z,60.30
2024-03-31T01:48:52.022Z,60.26
2024-03-31T01:53:55.020Z,60.25
2024-03-31T01:59:01.218Z,60.20
2024-03-31T02:04:04.948Z,59.97
2024-03-31T02:09:08.042Z,59.50
2024-03-31T02:14:11.338Z,59.33
2024-03-31T02:19:14.492Z,59.00
2024-03-31T02:24:17.867Z,58.84
2024-03-31T02:29:21.161Z,58.82
2024-03-31T02:34:24.390Z,58.85
2024-03-31T02:39:27.570Z,59.02
2024-03-31T02:44:30.904Z,59.15
2024-03-31T02:49:34.321Z,59.45
2024-03-31T02:54:37.538Z,59.58
2024-03-31T02:59:40.922Z,59.76
2024-03-31T03:04:44.229Z,59.73
2024-03-31T03:09:47.812Z,60.24
2024-03-31T03:14:55.252Z,60.64
2024-03-31T03:19:58.778Z,60.70
2024-03-31T03:25:02.454Z,60.82
2024-03-31T03:30:06.787Z,61.48
2024-03-31T03:35:09.938Z,63.28
2024-03-31T03:40:14.141Z,63.52
2024-03-31T03:45:17.475Z,63.95
2024-03-31T03:50:20.779Z,64.36
2024-03-31T03:55:24.023Z,64.40
2024-03-31T04:00:27.587Z,64.22
2024-03-31T04:05:31.016Z,64.49
2024-03-31T04:10:40.568Z,64.42
2024-03-31T04:15:44.305Z,64.58
2024-03-31T04:20:47.606Z,64.70
2024-03-31T04:25:50.862Z,64.76
2024-03-31T04:30:54.070Z,64.99
2024-03-31T04:36:00.050Z,65.10
2024-03-31T04:41:05.187Z,65.22
2024-03-31T04:46:09.962Z,65.32
2024-03-31T04:51:13.332Z,65.42
2024-03-31T04:56:16.676Z,65.41
2024-03-31T05:01:19.943Z,65.31
2024-03-31T05:06:23.651Z,65.06
2024-03-31T05:11:26.631Z,65.10
2024-03-31T05:16:29.912Z,65.00
2024-03-31T05:21:35.701Z,65.18
2024-03-31T05:26:40.679Z,65.17
2024-03-31T05:31:44.086Z,65.01
2024-03-31T05:36:49.575Z,64.81
2024-03-31T05:41:52.756Z,64.59
2024-03-31T05:46:55.971Z,64.56
2024-03-31T05:51:59.234Z,64.49
2024-03-31T05:57:03.876Z,64.24
2024-03-31T06:02:07.675Z,63.95
2024-03-31T06:07:11.508Z,63.52
2024-03-31T06:12:14.713Z,63.13
2024-03-31T06:17:19.939Z,62.42
2024-03-31T06:22:23.281Z,61.83
2024-03-31T06:27:26.445Z,61.04
2024-03-31T06:32:30.538Z,59.76
2024-03-31T06:37:34.015Z,58.55
2024-03-31T06:42:37.655Z,55.75
2024-03-31T06:47:41.247Z,54.31
2024-03-31T06:52:44.583Z,52.19
2024-03-31T06:57:47.879Z,48.08
2024-03-31T07:02:51.457Z,46.28
2024-03-31T07:07:55.333Z,42.37
2024-03-31T07:13:00.174Z,38.99
2024-03-31T07:18:11.241Z,36.33
2024-03-31T07:23:15.494Z,35.26
2024-03-31T07:28:18.774Z,34.85
2024-03-31T07:33:22.231Z,33.22
2024-03-31T07:38:26.599Z,32.30
2024-03-31T07:43:30.783Z,31.67
2024-03-31T07:48:34.670Z,32.22
2024-03-31T07:53:38.631Z,31.44
2024-03-31T07:58:47.874Z,31.66
2024-03-31T08:03:54.397Z,30.11
2024-03-31T08:08:58.829Z,29.34
2024-03-31T08:14:07.640Z,30.05
2024-03-31T08:19:12.567Z,31.90
2024-03-31T08:24:19.506Z,30.65
2024-03-31T08:29:23.664Z,28.45
2024-03-31T08:34:31.700Z,28.20
2024-03-31T08:39:50.593Z,28.46
2024-03-31T09:41:40.962Z,31.28
2024-03-31T09:46:45.597Z,29.79
2024-03-31T09:51:50.388Z,30.47
2024-03-31T09:57:04.100Z,29.81
2024-03-31T10:02:09.254Z,30.98
2024-03-31T10:07:11.906Z,30.15
2024-03-31T10:12:16.973Z,29.86
2024-03-31T10:17:20.213Z,29.99
2024-03-31T10:22:23.798Z,31.85
2024-03-31T10:27:27.418Z,31.74
2024-03-31T10:32:31.208Z,32.02
2024-03-31T10:37:37.824Z,32.99
2024-03-31T10:42:42.152Z,32.36
2024-03-31T10:47:45.240Z,32.75
2024-03-31T10:52:48.002Z,32.71
2024-03-31T10:57:59.908Z,33.24
2024-03-31T11:03:08.423Z,33.51
2024-03-31T11:08:12.446Z,33.71
2024-03-31T11:13:16.610Z,34.05
2024-03-31T11:18:18.978Z,35.12
2024-03-31T11:23:22.400Z,35.49
2024-03-31T11:28:24.597Z,35.88
2024-03-31T11:33:28.305Z,36.20
2024-03-31T11:38:31.426Z,36.35
2024-03-31T11:43:34.267Z,36.80
2024-03-31T11:48:36.710Z,36.42
2024-03-31T11:53:39.391Z,36.29
2024-03-31T11:58:41.492Z,36.34
2024-03-31T12:03:43.656Z,36.28
2024-03-31T12:08:47.721Z,36.76
2024-03-31T12:13:51.389Z,36.75
2024-03-31T12:18:53.822Z,36.42
2024-03-31T12:24:00.552Z,36.82
2024-03-31T12:29:05.091Z,37.21
2024-03-31T12:34:08.055Z,37.41
2024-03-31T12:39:12.404Z,37.77
2024-03-31T12:44:17.007Z,36.83
2024-03-31T13:25:37.737Z,37.96
2024-03-31T13:30:45.794Z,38.27
2024-03-31T13:35:50.020Z,38.13
2024-03-31T13:40:53.643Z,38.51
2024-03-31T13:45:57.431Z,38.60
2024-03-31T13:51:01.647Z,38.81
2024-03-31T13:56:05.614Z,38.92
2024-03-31T14:01:09.441Z,38.80
2024-03-31T14:06:13.055Z,38.52
2024-03-31T14:11:17.217Z,38.72
2024-03-31T14:16:20.829Z,38.94
2024-03-31T14:21:27.756Z,39.34
2024-03-31T14:26:31.325Z,39.85
2024-03-31T14:31:35.665Z,40.36
2024-03-31T14:36:39.050Z,40.72
2024-03-31T14:41:42.493Z,41.59
2024-03-31T14:46:45.778Z,42.35
2024-03-31T14:51:49.233Z,42.79
2024-03-31T14:56:53.522Z,42.29
2024-03-31T15:01:56.961Z,41.91
2024-03-31T15:07:00.643Z,41.96
2024-03-31T15:12:06.074Z,41.93
2024-03-31T15:17:09.528Z,42.10
2024-03-31T15:22:14.448Z,42.26
2024-03-31T15:27:26.410Z,42.19
2024-03-31T15:32:35.653Z,42.38
2024-03-31T15:37:38.938Z,42.30
2024-03-31T15:42:42.781Z,42.43
2024-03-31T15:47:46.377Z,42.49
2024-03-31T15:52:50.061Z,42.53
2024-03-31T15:57:53.220Z,42.86
2024-03-31T16:02:57.339Z,42.83
2024-03-31T16:08:03.857Z,43.02
2024-03-31T16:13:07.487Z,43.27
2024-03-31T16:18:10.694Z,43.29
2024-03-31T16:23:14.105Z,43.72
2024-03-31T16:28:17.432Z,43.85
2024-03-31T16:33:22.406Z,43.96
2024-03-31T16:38:25.856Z,44.22
2024-03-31T16:43:30.279Z,44.52
2024-03-31T16:48:33.803Z,44.94
2024-03-31T16:53:37.066Z,45.46
2024-03-31T16:58:42.262Z,46.29
2024-03-31T17:03:47.626Z,47.19
2024-03-31T17:08:50.850Z,48.19
2024-03-31T17:13:56.756Z,48.68
2024-03-31T17:19:01.458Z,49.48
2024-03-31T17:24:05.293Z,50.16
2024-03-31T17:29:36.259Z,50.81
2024-03-31T17:34:46.765Z,51.12
2024-03-31T17:40:08.585Z,51.90
2024-03-31T17:45:19.958Z,54.01
2024-03-31T17:50:29.465Z,54.15
2024-03-31T17:55:49.219Z,53.70
2024-03-31T18:00:52.736Z,56.37
2024-03-31T18:06:06.473Z,55.97
2024-03-31T18:11:11.529Z,56.25
2024-03-31T18:16:15.849Z,57.36
2024-03-31T18:21:24.330Z,56.36
2024-03-31T18:26:27.736Z,56.82
2024-03-31T18:31:42.224Z,58.76
2024-03-31T18:36:58.494Z,59.19
2024-03-31T18:42:02.091Z,60.32
2024-03-31T18:47:05.842Z,61.57
2024-03-31T18:58:14.952Z,66.60
2024-03-31T19:03:18.871Z,66.16
2024-03-31T19:08:25.901Z,64.81
2024-03-31T19:13:30.975Z,64.65
2024-03-31T19:18:35.438Z,64.85
2024-03-31T19:23:43.465Z,66.00
2024-03-31T19:28:57.752Z,66.36
2024-03-31T19:34:02.459Z,67.45
2024-03-31T19:39:06.884Z,66.81
2024-03-31T19:44:13.126Z,65.83
2024-03-31T19:49:17.112Z,66.28
2024-03-31T19:54:22.414Z,67.52
2024-03-31T19:59:26.191Z,68.42
2024-03-31T20:04:29.840Z,69.25
2024-03-31T20:09:37.446Z,68.24
2024-03-31T20:14:50.200Z,68.95
2024-03-31T20:19:56.175Z,67.03
2024-03-31T20:25:03.345Z,68.88
2024-03-31T20:30:12.684Z,68.46
2024-03-31T20:35:19.321Z,69.47
2024-03-31T20:40:25.367Z,70.24
2024-03-31T20:45:30.860Z,71.64
2024-03-31T20:50:42.198Z,72.19
2024-03-31T20:56:10.957Z,73.16
2024-03-31T21:01:19.820Z,71.58
2024-03-31T21:06:49.287Z,74.16
2024-03-31T21:11:57.703Z,73.29
2024-03-31T21:17:13.493Z,72.45
2024-03-31T21:22:18.568Z,72.77
2024-03-31T21:27:25.779Z,73.55
2024-03-31T21:32:32.178Z,73.71
2024-03-31T21:37:46.308Z,74.49
2024-03-31T21:42:57.401Z,75.60
2024-03-31T21:48:04.734Z,75.38
2024-03-31T21:53:08.227Z,74.47
2024-03-31T21:58:15.853Z,73.00
2024-03-31T22:03:22.090Z,73.42
2024-03-31T22:08:32.954Z,73.64
2024-03-31T22:13:37.735Z,73.91
2024-03-31T22:18:53.451Z,74.85
2024-03-31T22:23:58.598Z,74.09
2024-03-31T22:29:01.707Z,74.67
2024-03-31T22:34:06.655Z,74.69
2024-03-31T22:39:12.509Z,74.58
2024-03-31T22:44:17.910Z,75.11
2024-03-31T22:49:25.358Z,75.40
2024-03-31T22:54:29.768Z,75.81
2024-03-31T22:59:44.501Z,76.73
2024-03-31T23:04:48.558Z,77.57
2024-03-31T23:09:52.157Z,75.99
2024-03-31T23:14:58.628Z,78.17
2024-03-31T23:20:24.884Z,76.19
2024-03-31T23:25:32.387Z,77.01
2024-03-31T23:30:46.176Z,75.30
2024-03-31T23:35:53.514Z,76.42
2024-03-31T23:40:58.402Z,75.85
2024-03-31T23:46:05.647Z,75.03
2024-03-31T23:51:11.510Z,73.85
2024-03-31T23:56:17.453Z,74.76
